createdAt,value
2022-07-29T00:01:03.853Z,23.34
2022-07-29T00:03:30.520Z,22.96
2022-07-29T00:05:57.168Z,22.84
2022-07-29T00:08:23.893Z,22.02
2022-07-29T00:10:51.955Z,22.15
2022-07-29T00:13:18.585Z,22.40
2022-07-29T00:15:58.943Z,22.18
2022-07-29T00:18:31.273Z,22.39
2022-07-29T00:20:57.942Z,22.49
2022-07-29T00:23:24.534Z,22.17
2022-07-29T00:25:51.156Z,21.88
2022-07-29T00:28:17.720Z,22.10
2022-07-29T00:30:44.378Z,21.91
2022-07-29T00:33:11.041Z,21.99
2022-07-29T00:35:47.109Z,22.43
2022-07-29T00:38:15.589Z,22.26
2022-07-29T00:40:43.287Z,22.00
2022-07-29T00:43:11.393Z,22.04
2022-07-29T00:45:38.045Z,21.93
2022-07-29T00:48:05.826Z,21.86
2022-07-29T00:50:33.928Z,21.87
2022-07-29T00:53:01.082Z,21.30
2022-07-29T00:55:27.941Z,21.44
2022-07-29T00:57:54.735Z,21.11
2022-07-29T01:00:24.340Z,21.10
2022-07-29T01:02:51.630Z,21.22
2022-07-29T01:05:20.525Z,21.37
2022-07-29T01:07:49.485Z,21.57
2022-07-29T01:10:17.438Z,21.78
2022-07-29T01:12:45.687Z,21.83
2022-07-29T01:15:12.628Z,21.99
2022-07-29T01:17:52.582Z,21.85
2022-07-29T01:21:01.446Z,22.00
2022-07-29T01:23:37.439Z,21.87
2022-07-29T01:26:30.038Z,21.91
2022-07-29T01:29:09.801Z,21.85
2022-07-29T01:31:59.805Z,21.79
2022-07-29T01:34:51.388Z,21.88
2022-07-29T01:37:26.561Z,21.87
2022-07-29T01:39:56.992Z,21.73
2022-07-29T01:42:31.519Z,21.59
2022-07-29T01:45:10.276Z,21.89
2022-07-29T01:48:01.661Z,21.83
2022-07-29T01:50:35.462Z,21.97
2022-07-29T01:53:05.632Z,21.97
2022-07-29T01:55:39.409Z,22.19
2022-07-29T01:58:07.931Z,22.08
2022-07-29T02:00:35.683Z,22.09
2022-07-29T02:03:08.314Z,22.02
2022-07-29T02:05:36.805Z,22.21
2022-07-29T02:08:06.039Z,21.88
2022-07-29T02:10:34.811Z,21.99
2022-07-29T02:13:03.048Z,22.00
2022-07-29T02:15:33.016Z,21.97
2022-07-29T02:18:04.898Z,21.78
2022-07-29T02:20:31.934Z,22.18
2022-07-29T02:23:00.509Z,22.13
2022-07-29T02:25:38.060Z,22.08
2022-07-29T02:28:07.262Z,21.53
2022-07-29T02:30:37.629Z,21.80
2022-07-29T02:33:05.900Z,21.97
2022-07-29T02:35:34.574Z,22.08
2022-07-29T02:38:21.916Z,21.71
2022-07-29T02:40:50.829Z,21.51
2022-07-29T02:43:19.665Z,21.80
2022-07-29T02:45:52.541Z,21.61
2022-07-29T02:48:23.468Z,21.71
2022-07-29T02:50:56.621Z,21.86
2022-07-29T02:53:28.087Z,21.80
2022-07-29T02:56:01.592Z,21.84
2022-07-29T02:58:41.820Z,21.44
2022-07-29T03:01:21.324Z,21.54
2022-07-29T03:03:51.615Z,21.87
2022-07-29T03:06:37.767Z,21.52
2022-07-29T03:09:12.557Z,21.61
2022-07-29T03:11:49.320Z,21.70
2022-07-29T03:14:19.123Z,21.61
2022-07-29T03:16:46.177Z,21.67
2022-07-29T03:19:13.271Z,21.64
2022-07-29T03:21:40.042Z,21.56
2022-07-29T03:24:10.504Z,21.39
2022-07-29T03:26:37.962Z,21.17
2022-07-29T03:29:04.570Z,21.15
2022-07-29T03:31:32.140Z,21.37
2022-07-29T03:34:00.302Z,21.26
2022-07-29T03:36:27.046Z,21.41
2022-07-29T03:38:54.237Z,21.56
2022-07-29T03:41:23.661Z,21.70
2022-07-29T03:43:52.764Z,21.78
2022-07-29T03:46:23.776Z,21.39
2022-07-29T03:48:57.374Z,21.36
2022-07-29T03:51:33.470Z,21.65
2022-07-29T03:54:09.676Z,21.82
2022-07-29T03:56:43.048Z,21.78
2022-07-29T03:59:12.187Z,21.83
2022-07-29T04:01:40.030Z,21.74
2022-07-29T04:04:06.856Z,21.91
2022-07-29T04:06:44.861Z,21.86
2022-07-29T04:09:12.997Z,21.85
2022-07-29T04:12:03.511Z,21.81
2022-07-29T04:14:27.928Z,21.78
2022-07-29T04:16:54.525Z,21.79
2022-07-29T04:19:21.169Z,21.62
2022-07-29T04:21:47.962Z,21.59
2022-07-29T04:24:14.968Z,21.64
2022-07-29T04:26:41.761Z,21.61
2022-07-29T04:29:08.467Z,21.58
2022-07-29T04:31:35.288Z,21.63
2022-07-29T04:34:02.004Z,21.69
2022-07-29T04:36:29.947Z,21.64
2022-07-29T04:38:57.071Z,21.64
2022-07-29T04:41:23.730Z,21.60
2022-07-29T04:44:01.973Z,21.43
2022-07-29T04:46:28.917Z,21.22
2022-07-29T04:48:55.744Z,21.00
2022-07-29T04:51:22.476Z,20.55
2022-07-29T04:53:49.289Z,20.84
2022-07-29T04:56:16.017Z,20.90
2022-07-29T04:58:42.842Z,20.88
2022-07-29T05:01:09.506Z,20.92
2022-07-29T05:03:36.134Z,21.06
2022-07-29T05:06:02.811Z,21.29
2022-07-29T05:08:29.592Z,21.30
2022-07-29T05:10:56.512Z,21.38
2022-07-29T05:13:23.082Z,21.21
2022-07-29T05:15:49.890Z,21.10
2022-07-29T05:18:16.743Z,21.22
2022-07-29T05:20:43.356Z,21.40
2022-07-29T05:23:10.026Z,21.39
2022-07-29T05:25:43.070Z,21.34
2022-07-29T05:28:10.710Z,21.41
2022-07-29T05:30:37.347Z,21.40
2022-07-29T05:33:04.206Z,21.52
2022-07-29T05:35:31.153Z,21.52
2022-07-29T05:37:57.958Z,21.46
2022-07-29T05:40:24.585Z,21.58
2022-07-29T05:42:51.190Z,21.44
2022-07-29T05:45:17.789Z,21.61
2022-07-29T05:47:44.705Z,21.65
2022-07-29T05:50:11.492Z,21.73
2022-07-29T05:52:38.121Z,21.68
2022-07-29T05:55:06.629Z,21.69
2022-07-29T05:57:33.559Z,21.53
2022-07-29T06:00:00.614Z,21.51
2022-07-29T06:02:27.355Z,21.73
2022-07-29T06:04:54.754Z,21.82
2022-07-29T06:07:21.820Z,21.80
2022-07-29T06:09:48.435Z,21.77
2022-07-29T06:12:15.396Z,21.87
2022-07-29T06:14:42.060Z,21.94
2022-07-29T06:17:08.678Z,21.90
2022-07-29T06:19:37.200Z,21.93
2022-07-29T06:22:03.901Z,21.87
2022-07-29T06:24:30.494Z,21.89
2022-07-29T06:26:57.065Z,21.92
2022-07-29T06:29:23.762Z,21.66
2022-07-29T06:31:50.363Z,21.76
2022-07-29T06:34:17.462Z,21.96
2022-07-29T06:36:44.547Z,22.09
2022-07-29T06:39:12.584Z,22.05
2022-07-29T06:41:39.171Z,22.20
2022-07-29T06:44:10.089Z,22.18
2022-07-29T06:46:37.518Z,22.17
2022-07-29T06:49:05.436Z,22.18
2022-07-29T06:51:32.126Z,22.24
2022-07-29T06:54:03.385Z,22.32
2022-07-29T06:56:46.387Z,22.36
2022-07-29T06:59:13.957Z,22.37
2022-07-29T07:01:43.272Z,22.33
2022-07-29T07:04:10.681Z,22.24
2022-07-29T07:06:37.852Z,22.15
2022-07-29T07:09:04.965Z,22.14
2022-07-29T07:11:31.776Z,22.12
2022-07-29T07:14:03.088Z,22.08
2022-07-29T07:16:30.471Z,22.13
2022-07-29T07:18:57.115Z,22.25
2022-07-29T07:21:23.767Z,22.34
2022-07-29T07:23:50.457Z,22.37
2022-07-29T07:26:17.113Z,22.50
2022-07-29T07:28:43.735Z,22.74
2022-07-29T07:31:10.649Z,22.58
2022-07-29T07:33:37.304Z,22.68
2022-07-29T07:36:04.167Z,22.51
2022-07-29T07:38:30.753Z,22.58
2022-07-29T07:40:57.451Z,22.45
2022-07-29T07:43:24.137Z,22.44
2022-07-29T07:45:50.800Z,22.39
2022-07-29T07:48:17.709Z,22.39
2022-07-29T07:50:44.771Z,22.51
2022-07-29T07:53:11.705Z,22.72
2022-07-29T07:56:09.377Z,22.80
2022-07-29T07:58:31.820Z,22.54
2022-07-29T08:00:58.633Z,22.66
2022-07-29T08:03:25.271Z,22.51
2022-07-29T08:05:52.833Z,22.73
2022-07-29T08:08:19.560Z,22.81
2022-07-29T08:10:56.775Z,22.85
2022-07-29T08:13:26.516Z,22.98
2022-07-29T08:15:58.898Z,22.91
2022-07-29T08:18:27.621Z,22.97
2022-07-29T08:20:54.513Z,23.02
2022-07-29T08:23:21.539Z,22.86
2022-07-29T08:25:50.350Z,23.00
2022-07-29T08:28:18.041Z,23.08
2022-07-29T08:30:45.898Z,23.00
2022-07-29T08:33:12.605Z,23.22
2022-07-29T08:35:39.942Z,23.19
2022-07-29T08:38:06.554Z,23.37
2022-07-29T08:40:33.256Z,23.50
2022-07-29T08:43:05.067Z,23.53
2022-07-29T08:45:47.960Z,23.54
2022-07-29T08:48:21.133Z,23.62
2022-07-29T08:50:50.905Z,23.49
2022-07-29T08:53:18.957Z,23.46
2022-07-29T08:55:47.610Z,23.82
2022-07-29T08:58:15.904Z,23.78
2022-07-29T09:00:46.315Z,23.94
2022-07-29T09:03:16.604Z,23.92
2022-07-29T09:05:48.078Z,24.13
2022-07-29T09:08:16.381Z,23.99
2022-07-29T09:10:43.813Z,24.01
2022-07-29T09:13:10.508Z,24.01
2022-07-29T09:15:37.153Z,24.16
2022-07-29T09:18:03.786Z,24.33
2022-07-29T09:20:50.369Z,24.40
2022-07-29T09:23:23.430Z,24.34
2022-07-29T09:25:51.551Z,24.69
2022-07-29T09:28:19.132Z,24.90
2022-07-29T09:30:59.300Z,24.77
2022-07-29T09:33:35.407Z,24.76
2022-07-29T09:36:07.368Z,24.83
2022-07-29T09:38:35.429Z,24.78
2022-07-29T09:41:05.737Z,25.20
2022-07-29T09:43:33.474Z,25.31
2022-07-29T09:46:15.692Z,25.44
2022-07-29T09:48:42.484Z,25.28
2022-07-29T09:51:21.533Z,25.46
2022-07-29T09:53:51.301Z,25.38
2022-07-29T09:56:19.705Z,25.24
2022-07-29T09:58:46.332Z,25.17
2022-07-29T10:01:13.481Z,25.20
2022-07-29T10:03:53.590Z,25.35
2022-07-29T10:06:20.272Z,25.22
2022-07-29T10:08:47.666Z,25.17
2022-07-29T10:11:16.680Z,25.28
2022-07-29T10:13:46.979Z,25.39
2022-07-29T10:16:15.407Z,25.35
2022-07-29T10:18:43.343Z,25.40
2022-07-29T10:21:11.089Z,25.33
2022-07-29T10:23:50.229Z,25.48
2022-07-29T10:26:17.705Z,25.49
2022-07-29T10:28:44.321Z,25.67
2022-07-29T10:31:27.067Z,25.66
2022-07-29T10:34:14.655Z,25.65
2022-07-29T10:37:35.909Z,25.69
2022-07-29T10:40:44.023Z,25.64
2022-07-29T10:43:23.207Z,25.67
2022-07-29T10:45:57.450Z,25.76
2022-07-29T10:48:24.855Z,25.68
2022-07-29T10:50:57.986Z,25.66
2022-07-29T10:53:25.846Z,25.52
2022-07-29T10:56:00.379Z,25.64
2022-07-29T10:58:27.025Z,25.72
2022-07-29T11:00:55.149Z,25.64
2022-07-29T11:03:52.444Z,25.47
2022-07-29T11:06:26.620Z,25.51
2022-07-29T11:09:34.942Z,25.44
2022-07-29T11:12:04.591Z,25.44
2022-07-29T11:14:56.798Z,25.66
2022-07-29T11:17:26.533Z,25.77
2022-07-29T11:20:32.164Z,25.57
2022-07-29T11:22:59.401Z,25.97
2022-07-29T11:25:42.533Z,25.97
2022-07-29T11:28:22.760Z,26.35
2022-07-29T11:30:54.537Z,26.28
2022-07-29T11:33:54.526Z,26.44
2022-07-29T11:36:19.064Z,26.50
2022-07-29T11:39:36.933Z,26.33
2022-07-29T11:42:32.674Z,26.40
2022-07-29T11:48:27.780Z,26.36
2022-07-29T11:50:48.547Z,26.37
2022-07-29T11:53:16.211Z,26.34
2022-07-29T11:55:51.595Z,26.34
2022-07-29T12:01:17.406Z,26.28
2022-07-29T12:03:45.060Z,26.18
2022-07-29T12:07:02.364Z,26.30
2022-07-29T12:09:08.364Z,26.02
2022-07-29T12:11:41.012Z,25.94
2022-07-29T12:14:08.400Z,26.17
2022-07-29T12:16:38.339Z,26.26
2022-07-29T12:19:05.600Z,26.10
2022-07-29T12:21:53.605Z,26.19
2022-07-29T12:24:23.321Z,24.75
2022-07-29T12:26:55.964Z,25.03
2022-07-29T12:29:34.529Z,25.42
2022-07-29T12:32:02.199Z,25.07
2022-07-29T12:34:30.385Z,25.04
2022-07-29T12:36:57.081Z,25.32
2022-07-29T12:39:27.280Z,25.44
2022-07-29T12:41:54.261Z,25.94
2022-07-29T12:44:48.802Z,26.06
2022-07-29T12:47:16.718Z,26.23
2022-07-29T12:49:43.358Z,26.27
2022-07-29T12:52:33.050Z,26.11
2022-07-29T12:55:00.858Z,26.08
2022-07-29T12:57:28.734Z,25.90
2022-07-29T13:00:12.388Z,25.64
2022-07-29T13:02:40.015Z,25.63
2022-07-29T13:05:09.238Z,26.02
2022-07-29T13:07:54.287Z,25.84
2022-07-29T13:10:24.295Z,25.76
2022-07-29T13:13:07.506Z,26.10
2022-07-29T13:15:35.095Z,25.87
2022-07-29T13:18:02.142Z,25.94
2022-07-29T13:20:32.725Z,26.12
2022-07-29T13:23:02.330Z,26.21
2022-07-29T13:25:33.302Z,25.80
2022-07-29T13:28:00.640Z,25.91
2022-07-29T13:30:27.296Z,26.02
2022-07-29T13:32:54.307Z,25.85
2022-07-29T13:35:21.299Z,26.28
2022-07-29T13:37:48.109Z,25.86
2022-07-29T13:40:15.369Z,25.58
2022-07-29T13:42:42.318Z,25.51
2022-07-29T13:45:10.350Z,25.73
2022-07-29T13:47:37.399Z,25.65
2022-07-29T13:50:06.786Z,25.78
2022-07-29T13:52:34.386Z,25.87
2022-07-29T13:55:01.590Z,25.70
2022-07-29T13:57:28.731Z,25.52
2022-07-29T13:59:55.697Z,25.47
2022-07-29T14:02:25.340Z,25.46
2022-07-29T14:04:52.661Z,25.56
2022-07-29T14:07:19.470Z,25.55
2022-07-29T14:09:46.124Z,25.60
2022-07-29T14:12:12.868Z,25.39
2022-07-29T14:14:39.633Z,25.33
2022-07-29T14:17:07.595Z,25.21
2022-07-29T14:19:39.281Z,25.38
2022-07-29T14:22:08.629Z,25.59
2022-07-29T14:24:37.349Z,25.58
2022-07-29T14:27:05.643Z,25.59
2022-07-29T14:29:37.201Z,25.47
2022-07-29T14:32:11.152Z,25.50
2022-07-29T14:34:38.989Z,25.38
2022-07-29T14:37:06.925Z,25.42
2022-07-29T14:39:42.084Z,25.25
2022-07-29T14:42:14.158Z,25.26
2022-07-29T14:44:42.881Z,25.28
2022-07-29T14:47:12.309Z,25.30
2022-07-29T14:49:38.894Z,25.54
2022-07-29T14:52:05.751Z,25.41
2022-07-29T14:54:32.406Z,25.55
2022-07-29T14:56:59.069Z,25.58
2022-07-29T14:59:27.085Z,25.25
2022-07-29T15:01:53.997Z,25.70
2022-07-29T15:04:21.006Z,25.46
2022-07-29T15:06:48.205Z,25.52
2022-07-29T15:09:15.178Z,25.64
2022-07-29T15:11:42.041Z,25.75
2022-07-29T15:14:08.741Z,25.77
2022-07-29T15:16:43.541Z,25.79
2022-07-29T15:19:10.748Z,25.67
2022-07-29T15:21:41.699Z,25.76
2022-07-29T15:24:18.485Z,25.76
2022-07-29T15:26:45.586Z,25.83
2022-07-29T15:29:12.951Z,25.96
2022-07-29T15:31:39.704Z,25.82
2022-07-29T15:34:07.281Z,26.06
2022-07-29T15:39:21.843Z,26.22
2022-07-29T15:41:48.479Z,26.21
2022-07-29T15:44:15.175Z,26.40
2022-07-29T15:47:01.026Z,26.40
2022-07-29T15:49:47.666Z,26.41
2022-07-29T15:52:19.090Z,26.24
2022-07-29T15:54:52.172Z,26.14
2022-07-29T15:57:18.769Z,26.16
2022-07-29T15:59:45.456Z,26.01
2022-07-29T16:02:12.588Z,25.70
2022-07-29T16:04:39.617Z,25.70
2022-07-29T16:07:06.951Z,25.68
2022-07-29T16:09:33.601Z,25.73
2022-07-29T16:12:00.361Z,25.97
2022-07-29T16:14:28.300Z,25.78
2022-07-29T16:16:55.296Z,25.61
2022-07-29T16:19:22.203Z,25.52
2022-07-29T16:21:48.869Z,25.59
2022-07-29T16:24:15.499Z,25.61
2022-07-29T16:26:42.122Z,25.64
2022-07-29T16:29:08.746Z,25.50
2022-07-29T16:31:35.462Z,25.55
2022-07-29T16:34:02.537Z,25.57
2022-07-29T16:36:29.256Z,25.64
2022-07-29T16:38:55.836Z,25.45
2022-07-29T16:41:22.461Z,25.36
2022-07-29T16:43:49.161Z,25.23
2022-07-29T16:46:18.983Z,25.42
2022-07-29T16:48:47.580Z,25.47
2022-07-29T16:51:15.330Z,25.33
2022-07-29T16:53:42.275Z,25.26
2022-07-29T16:56:11.159Z,25.20
2022-07-29T16:58:43.513Z,25.07
2022-07-29T17:01:10.564Z,25.07
2022-07-29T17:04:00.198Z,24.99
2022-07-29T17:06:28.659Z,25.06
2022-07-29T17:08:56.481Z,25.04
2022-07-29T17:11:23.128Z,25.22
2022-07-29T17:14:10.435Z,25.18
2022-07-29T17:16:37.416Z,25.00
2022-07-29T17:19:04.157Z,25.17
2022-07-29T17:21:30.758Z,25.04
2022-07-29T17:23:59.263Z,25.10
2022-07-29T17:26:28.019Z,25.12
2022-07-29T17:28:55.919Z,25.21
2022-07-29T17:31:23.462Z,25.19
2022-07-29T17:33:50.562Z,25.33
2022-07-29T17:36:29.743Z,25.23
2022-07-29T17:38:59.716Z,25.37
2022-07-29T17:41:26.747Z,25.44
2022-07-29T17:43:54.488Z,25.41
2022-07-29T17:46:24.703Z,25.47
2022-07-29T17:48:51.499Z,25.38
2022-07-29T17:51:18.236Z,25.33
2022-07-29T17:53:44.887Z,25.42
2022-07-29T17:56:11.604Z,25.31
2022-07-29T17:58:39.414Z,25.47
2022-07-29T18:01:06.355Z,25.63
2022-07-29T18:03:33.518Z,25.70
2022-07-29T18:06:00.676Z,25.87
2022-07-29T18:08:28.000Z,25.89
2022-07-29T18:10:54.726Z,25.97
2022-07-29T18:13:21.619Z,25.80
2022-07-29T18:15:48.402Z,25.80
2022-07-29T18:18:15.915Z,25.91
2022-07-29T18:20:43.398Z,25.86
2022-07-29T18:23:10.565Z,25.82
2022-07-29T18:25:37.416Z,25.66
2022-07-29T18:28:04.363Z,25.37
2022-07-29T18:30:34.011Z,25.33
2022-07-29T18:33:20.393Z,25.47
2022-07-29T18:35:49.481Z,25.66
2022-07-29T18:38:16.203Z,25.51
2022-07-29T18:40:43.366Z,25.51
2022-07-29T18:43:10.017Z,25.43
2022-07-29T18:45:36.735Z,25.43
2022-07-29T18:48:08.425Z,25.52
2022-07-29T18:50:40.460Z,25.53
2022-07-29T18:53:07.213Z,25.44
2022-07-29T18:55:33.858Z,25.50
2022-07-29T18:58:00.514Z,25.50
2022-07-29T19:00:27.787Z,25.36
2022-07-29T19:02:54.987Z,25.20
2022-07-29T19:05:23.001Z,25.15
2022-07-29T19:07:49.688Z,25.01
2022-07-29T19:10:16.539Z,24.93
2022-07-29T19:12:43.320Z,24.77
2022-07-29T19:15:10.660Z,24.64
2022-07-29T19:17:37.956Z,24.60
2022-07-29T19:20:05.628Z,24.58
2022-07-29T19:22:34.106Z,24.47
2022-07-29T19:25:00.708Z,24.42
2022-07-29T19:27:27.348Z,24.31
2022-07-29T19:29:59.003Z,24.22
2022-07-29T19:32:26.057Z,24.11
2022-07-29T19:35:11.478Z,24.02
2022-07-29T19:37:38.129Z,23.90
2022-07-29T19:40:06.185Z,23.81
2022-07-29T19:42:32.827Z,23.69
2022-07-29T19:44:59.409Z,23.62
2022-07-29T19:47:26.068Z,23.55
2022-07-29T19:49:52.655Z,23.53
2022-07-29T19:52:19.308Z,23.49
2022-07-29T19:54:46.029Z,23.47
2022-07-29T19:57:12.614Z,23.36
2022-07-29T19:59:40.940Z,23.24
2022-07-29T20:02:10.739Z,23.25
2022-07-29T20:04:37.895Z,23.18
2022-07-29T20:07:05.157Z,23.11
2022-07-29T20:09:31.793Z,22.85
2022-07-29T20:11:58.569Z,22.86
2022-07-29T20:14:25.169Z,22.91
2022-07-29T20:16:53.960Z,23.08
2022-07-29T20:19:20.567Z,23.06
2022-07-29T20:21:47.168Z,22.80
2022-07-29T20:24:13.828Z,22.75
2022-07-29T20:26:40.522Z,22.60
2022-07-29T20:29:07.183Z,22.65
2022-07-29T20:31:34.066Z,21.82
2022-07-29T20:34:01.977Z,21.71
2022-07-29T20:36:28.682Z,21.55
2022-07-29T20:38:56.384Z,21.69
2022-07-29T20:41:23.573Z,21.60
2022-07-29T20:43:50.591Z,21.47
2022-07-29T20:46:18.190Z,21.38
2022-07-29T20:48:46.958Z,21.30
2022-07-29T20:51:14.486Z,21.19
2022-07-29T20:53:41.607Z,21.19
2022-07-29T20:56:08.383Z,21.19
2022-07-29T20:58:36.186Z,21.19
2022-07-29T21:01:03.797Z,21.05
2022-07-29T21:03:30.531Z,21.26
2022-07-29T21:05:57.105Z,21.06
2022-07-29T21:08:24.081Z,21.16
2022-07-29T21:10:50.717Z,21.03
2022-07-29T21:13:18.243Z,21.00
2022-07-29T21:15:48.915Z,21.08
2022-07-29T21:18:27.275Z,20.95
2022-07-29T21:20:54.915Z,20.96
2022-07-29T21:23:21.684Z,20.71
2022-07-29T21:25:48.405Z,20.84
2022-07-29T21:28:27.082Z,20.63
2022-07-29T21:30:55.042Z,20.51
2022-07-29T21:33:22.035Z,20.53
2022-07-29T21:36:26.577Z,20.50
2022-07-29T21:38:36.412Z,20.42
2022-07-29T21:41:04.626Z,20.44
2022-07-29T21:43:31.679Z,20.36
2022-07-29T21:45:59.606Z,20.30
2022-07-29T21:48:28.154Z,20.25
2022-07-29T21:50:54.918Z,20.23
2022-07-29T21:53:22.860Z,20.25
2022-07-29T21:55:54.306Z,20.37
2022-07-29T21:58:22.910Z,20.28
2022-07-29T22:00:50.135Z,20.22
2022-07-29T22:03:16.938Z,20.00
2022-07-29T22:05:44.620Z,20.13
2022-07-29T22:08:11.556Z,19.95
2022-07-29T22:10:38.303Z,19.89
2022-07-29T22:13:04.984Z,20.00
2022-07-29T22:15:32.261Z,20.43
2022-07-29T22:17:59.667Z,19.93
2022-07-29T22:20:26.515Z,20.24
2022-07-29T22:22:53.558Z,20.18
2022-07-29T22:25:20.551Z,20.37
2022-07-29T22:27:47.199Z,20.35
2022-07-29T22:30:14.691Z,20.25
2022-07-29T22:32:41.450Z,20.16
2022-07-29T22:35:08.813Z,20.22
2022-07-29T22:37:35.457Z,20.19
2022-07-29T22:40:02.559Z,20.19
2022-07-29T22:42:30.651Z,20.39
2022-07-29T22:44:57.373Z,20.39
2022-07-29T22:47:46.271Z,20.45
2022-07-29T22:50:11.096Z,20.09
2022-07-29T22:52:37.653Z,20.07
2022-07-29T22:55:05.425Z,19.98
2022-07-29T22:57:32.403Z,19.76
2022-07-29T23:00:01.669Z,20.06
2022-07-29T23:02:29.042Z,19.88
2022-07-29T23:04:55.934Z,19.93
2022-07-29T23:07:23.049Z,19.93
2022-07-29T23:09:49.868Z,20.09
2022-07-29T23:12:16.570Z,19.90
2022-07-29T23:14:43.968Z,19.72
2022-07-29T23:17:10.667Z,19.59
2022-07-29T23:19:37.540Z,19.69
2022-07-29T23:22:04.973Z,20.09
2022-07-29T23:24:31.613Z,20.01
2022-07-29T23:26:58.659Z,19.80
2022-07-29T23:29:26.474Z,19.81
2022-07-29T23:31:53.146Z,19.72
2022-07-29T23:34:19.846Z,19.68
2022-07-29T23:36:46.728Z,19.58
2022-07-29T23:39:13.480Z,19.71
2022-07-29T23:41:40.482Z,19.73
2022-07-29T23:44:07.222Z,19.63
2022-07-29T23:46:34.124Z,19.67
2022-07-29T23:49:00.924Z,19.66
2022-07-29T23:51:29.184Z,19.56
2022-07-29T23:53:56.125Z,19.56
2022-07-29T23:56:23.441Z,19.56
2022-07-29T23:58:50.224Z,19.58
